aviador You're here:

OITP Decoded Metar

PARSABAD in IRAN
Report Time2017-12-15 14:00:00
UTC Time2017-12-15 14:14:47
Flight Rules vfr VFR
WindCalm
Visibility9999 m
Phenomena:N/A
Clouds:N/A
Expected CloudBase > 2,000 ft AGL from Temp-Dew spread
CeilingNone
Temp07°C (ISA -8)
Dew Point02°C (71% RH)
AAT5.3°C
QNH1017 hPa
Density Alt-689 ft
Elevation251 ft
Report Wrong Elevation
Raw Report
METAR OITP 151400Z 00000KT CAVOK 07/02 Q1017=

Extra information for OITP:More info

Metar Taf Metar & Taf Last 4 Metars F.Rules Stats Wind Profile Meteogram Temp Stats Airport Information Weather charts Add Link Nearby VenuesMetar ALERT Operation Metar Decoded Social comments